createdAt,value
2018-10-11T00:02:21.541Z,20.80
2018-10-11T00:04:49.049Z,19.80
2018-10-11T00:07:16.557Z,22.40
2018-10-11T00:09:44.522Z,19.00
2018-10-11T00:12:12.731Z,26.20
2018-10-11T00:14:40.225Z,19.00
2018-10-11T00:17:09.426Z,17.20
2018-10-11T00:19:37.415Z,21.80
2018-10-11T00:22:04.913Z,20.20
2018-10-11T00:24:33.045Z,19.80
2018-10-11T00:27:00.590Z,19.20
2018-10-11T00:29:28.146Z,18.60
2018-10-11T00:31:56.111Z,19.20
2018-10-11T00:34:23.653Z,21.00
2018-10-11T00:36:51.166Z,18.80
2018-10-11T00:39:18.665Z,21.40
2018-10-11T00:41:46.586Z,22.00
2018-10-11T00:44:17.423Z,20.20
2018-10-11T00:46:45.854Z,16.40
2018-10-11T00:49:13.904Z,18.40
2018-10-11T00:51:41.446Z,21.40
2018-10-11T00:54:09.333Z,18.00
2018-10-11T00:56:37.242Z,20.60
2018-10-11T00:59:04.757Z,18.20
2018-10-11T01:01:33.266Z,20.80
2018-10-11T01:04:00.786Z,19.80
2018-10-11T01:06:28.911Z,15.20
2018-10-11T01:08:56.454Z,18.00
2018-10-11T01:11:24.703Z,21.40
2018-10-11T01:13:52.198Z,16.80
2018-10-11T01:16:20.193Z,22.00
2018-10-11T01:18:47.713Z,18.00
2018-10-11T01:21:15.214Z,16.40
2018-10-11T01:23:42.790Z,15.40
2018-10-11T01:26:10.296Z,16.00
2018-10-11T01:28:37.793Z,21.60
2018-10-11T01:31:10.350Z,18.60
2018-10-11T01:33:38.353Z,18.20
2018-10-11T01:36:05.882Z,16.80
2018-10-11T01:38:33.449Z,20.00
2018-10-11T01:41:00.990Z,23.00
2018-10-11T01:43:29.043Z,20.60
2018-10-11T01:45:56.618Z,18.60
2018-10-11T01:48:24.130Z,22.00
2018-10-11T01:50:51.662Z,19.80
2018-10-11T01:53:19.618Z,18.60
2018-10-11T01:55:47.130Z,10.80
2018-10-11T01:58:14.641Z,17.20
2018-10-11T02:00:42.176Z,17.20
2018-10-11T02:03:10.085Z,22.20
2018-10-11T02:05:37.641Z,15.80
2018-10-11T02:08:06.341Z,22.40
2018-10-11T02:10:34.318Z,18.60
2018-10-11T02:13:01.831Z,18.60
2018-10-11T02:15:30.178Z,19.40
2018-10-11T02:17:58.365Z,16.40
2018-10-11T02:20:26.673Z,16.00
2018-10-11T02:22:54.181Z,18.40
2018-10-11T02:25:21.736Z,22.40
2018-10-11T02:27:49.606Z,18.60
2018-10-11T02:30:17.172Z,25.80
2018-10-11T02:32:44.755Z,22.80
2018-10-11T02:35:12.967Z,21.00
2018-10-11T02:37:41.148Z,13.40
2018-10-11T02:40:08.712Z,17.20
2018-10-11T02:42:36.253Z,22.60
2018-10-11T02:45:03.844Z,22.00
2018-10-11T02:47:31.731Z,18.60
2018-10-11T02:49:59.321Z,19.20
2018-10-11T02:52:26.891Z,20.00
2018-10-11T02:54:54.577Z,21.20
2018-10-11T02:57:22.166Z,26.60
2018-10-11T02:59:49.738Z,21.00
2018-10-11T03:02:17.301Z,20.60
2018-10-11T03:04:45.371Z,22.40
2018-10-11T03:07:13.073Z,21.80
2018-10-11T03:09:41.406Z,20.20
2018-10-11T03:12:09.360Z,21.60
2018-10-11T03:14:36.945Z,19.80
2018-10-11T03:17:04.484Z,21.40
2018-10-11T03:19:32.040Z,20.80
2018-10-11T03:22:00.028Z,23.20
2018-10-11T03:24:27.622Z,20.40
2018-10-11T03:26:55.205Z,26.80
2018-10-11T03:29:22.780Z,18.00
2018-10-11T03:31:50.657Z,18.60
2018-10-11T03:34:18.246Z,24.20
2018-10-11T03:36:45.816Z,23.60
2018-10-11T03:39:13.407Z,25.00
2018-10-11T03:41:41.449Z,23.20
2018-10-11T03:44:09.076Z,22.80
2018-10-11T03:46:36.800Z,21.20
2018-10-11T03:49:04.316Z,21.80
2018-10-11T03:51:32.333Z,19.40
2018-10-11T03:54:00.006Z,19.00
2018-10-11T03:56:27.810Z,25.40
2018-10-11T03:58:55.601Z,21.20
2018-10-11T04:01:23.623Z,22.80
2018-10-11T04:03:51.181Z,19.60
2018-10-11T04:06:18.766Z,23.20
2018-10-11T04:08:46.781Z,22.20
2018-10-11T04:11:14.356Z,21.60
2018-10-11T04:13:41.906Z,21.60
2018-10-11T04:16:09.453Z,25.20
2018-10-11T04:18:37.456Z,23.80
2018-10-11T04:21:05.017Z,28.00
2018-10-11T04:23:32.648Z,24.00
2018-10-11T04:26:01.285Z,23.40
2018-10-11T04:28:29.559Z,19.40
2018-10-11T04:30:57.859Z,20.60
2018-10-11T04:33:26.144Z,23.60
2018-10-11T04:35:54.463Z,19.00
2018-10-11T04:38:22.043Z,23.00
2018-10-11T04:40:50.099Z,24.60
2018-10-11T04:43:17.979Z,22.80
2018-10-11T04:45:45.472Z,21.20
2018-10-11T04:48:13.855Z,24.00
2018-10-11T04:50:43.055Z,21.20
2018-10-11T04:53:11.005Z,23.20
2018-10-11T04:55:38.997Z,26.40
2018-10-11T04:58:06.586Z,23.40
2018-10-11T05:00:34.205Z,20.00
2018-10-11T05:03:02.181Z,24.60
2018-10-11T05:05:29.781Z,25.60
2018-10-11T05:07:57.337Z,23.20
2018-10-11T05:10:25.286Z,20.60
2018-10-11T05:12:52.848Z,21.80
2018-10-11T05:15:20.393Z,24.20
2018-10-11T05:17:48.279Z,23.20
2018-10-11T05:20:15.910Z,22.80
2018-10-11T05:22:43.561Z,17.20
2018-10-11T05:25:11.508Z,24.20
2018-10-11T05:27:39.049Z,26.60
2018-10-11T05:30:06.636Z,22.00
2018-10-11T05:32:34.637Z,21.60
2018-10-11T05:35:02.261Z,25.40
2018-10-11T05:37:30.249Z,22.20
2018-10-11T05:39:58.377Z,21.20
2018-10-11T05:42:25.948Z,22.20
2018-10-11T05:44:54.044Z,25.00
2018-10-11T05:47:22.077Z,27.80
2018-10-11T05:49:49.640Z,16.80
2018-10-11T05:52:17.260Z,23.20
2018-10-11T05:54:45.285Z,25.20
2018-10-11T05:57:12.887Z,18.60
2018-10-11T05:59:40.512Z,24.20
2018-10-11T06:02:08.419Z,23.60
2018-10-11T06:04:36.256Z,20.40
2018-10-11T06:07:03.879Z,27.20
2018-10-11T06:09:31.879Z,24.40
2018-10-11T06:11:59.475Z,24.00
2018-10-11T06:14:27.044Z,24.00
2018-10-11T06:16:55.072Z,26.20
2018-10-11T06:19:22.625Z,24.00
2018-10-11T06:21:50.216Z,21.20
2018-10-11T06:24:18.244Z,22.20
2018-10-11T06:26:46.308Z,20.00
2018-10-11T06:29:17.620Z,20.80
2018-10-11T06:31:45.501Z,23.20
2018-10-11T06:34:13.893Z,22.20
2018-10-11T06:36:43.659Z,23.20
2018-10-11T06:39:12.281Z,21.00
2018-10-11T06:41:39.923Z,20.60
2018-10-11T06:44:07.527Z,23.00
2018-10-11T06:46:35.408Z,25.20
2018-10-11T06:49:03.024Z,26.20
2018-10-11T06:51:30.595Z,18.20
2018-10-11T06:53:58.552Z,21.20
2018-10-11T06:56:26.128Z,19.20
2018-10-11T06:58:53.693Z,29.40
2018-10-11T07:01:21.583Z,27.80
2018-10-11T07:03:49.142Z,30.60
2018-10-11T07:06:17.365Z,35.00
2018-10-11T07:08:46.013Z,27.80
2018-10-11T07:11:18.177Z,22.40
2018-10-11T07:13:46.241Z,26.00
2018-10-11T07:16:13.824Z,28.00
2018-10-11T07:21:10.817Z,37.20
2018-10-11T07:23:38.384Z,32.20
2018-10-11T07:26:05.975Z,28.00
2018-10-11T07:28:34.577Z,28.40
2018-10-11T07:31:02.145Z,15.00
2018-10-11T07:33:29.737Z,30.40
2018-10-11T07:35:57.644Z,23.40
2018-10-11T07:38:25.203Z,24.40
2018-10-11T07:40:53.552Z,21.80
2018-10-11T07:43:21.472Z,24.80
2018-10-11T07:45:49.082Z,27.40
2018-10-11T07:48:16.667Z,26.60
2018-10-11T07:50:44.620Z,24.40
2018-10-11T07:53:12.191Z,22.60
2018-10-11T07:55:39.830Z,26.00
2018-10-11T07:58:07.802Z,26.80
2018-10-11T08:00:35.417Z,30.40
2018-10-11T08:03:02.964Z,27.20
2018-10-11T08:05:30.972Z,33.80
2018-10-11T08:07:58.516Z,32.40
2018-10-11T08:10:26.261Z,36.40
2018-10-11T08:12:55.234Z,26.40
2018-10-11T08:15:22.895Z,32.60
2018-10-11T08:17:50.699Z,27.20
2018-10-11T08:20:18.450Z,25.40
2018-10-11T08:22:46.938Z,15.80
2018-10-11T08:25:14.702Z,21.60
2018-10-11T08:27:42.428Z,31.60
2018-10-11T08:30:09.993Z,27.80
2018-10-11T08:32:37.693Z,25.20
2018-10-11T08:35:05.612Z,19.40
2018-10-11T08:37:33.259Z,27.80
2018-10-11T08:40:00.993Z,23.40
2018-10-11T08:42:29.058Z,19.20
2018-10-11T08:44:56.621Z,27.00
2018-10-11T08:47:25.155Z,30.80
2018-10-11T08:49:53.640Z,27.60
2018-10-11T08:52:21.207Z,28.00
2018-10-11T08:54:51.922Z,23.40
2018-10-11T08:57:20.441Z,24.40
2018-10-11T08:59:48.803Z,26.40
2018-10-11T09:02:16.760Z,25.00
2018-10-11T09:04:45.769Z,24.00
2018-10-11T09:07:13.300Z,11.20
2018-10-11T09:09:42.237Z,26.40
2018-10-11T09:12:10.376Z,23.20
2018-10-11T09:14:38.876Z,26.40
2018-10-11T09:17:06.948Z,26.40
2018-10-11T09:19:35.555Z,22.60
2018-10-11T09:22:03.152Z,31.80
2018-10-11T09:24:31.592Z,26.60
2018-10-11T09:26:59.246Z,26.00
2018-10-11T09:29:27.852Z,21.00
2018-10-11T09:31:56.505Z,25.00
2018-10-11T09:34:24.046Z,25.00
2018-10-11T09:36:51.624Z,24.60
2018-10-11T09:39:20.313Z,17.60
2018-10-11T09:41:48.926Z,20.00
2018-10-11T09:44:16.468Z,20.80
2018-10-11T09:46:44.369Z,21.60
2018-10-11T09:49:11.915Z,17.40
2018-10-11T09:51:39.518Z,21.80
2018-10-11T09:54:09.310Z,19.00
2018-10-11T09:56:36.883Z,15.40
2018-10-11T09:59:05.908Z,17.60
2018-10-11T10:01:38.945Z,20.20
2018-10-11T10:04:06.525Z,17.20
2018-10-11T10:06:34.701Z,20.60
2018-10-11T10:09:02.689Z,16.60
2018-10-11T10:11:31.550Z,14.60
2018-10-11T10:14:00.009Z,15.20
2018-10-11T10:16:29.459Z,12.80
2018-10-11T10:18:57.071Z,15.40
2018-10-11T10:21:24.672Z,16.00
2018-10-11T10:23:52.621Z,11.00
2018-10-11T10:26:20.264Z,14.00
2018-10-11T10:28:47.873Z,13.80
2018-10-11T10:31:15.792Z,13.80
2018-10-11T10:33:44.507Z,13.60
2018-10-11T10:36:12.108Z,13.40
2018-10-11T10:38:45.529Z,11.80
2018-10-11T10:41:13.668Z,11.00
2018-10-11T10:43:41.223Z,9.00
2018-10-11T10:46:09.220Z,13.00
2018-10-11T10:48:37.402Z,9.00
2018-10-11T10:51:05.128Z,12.40
2018-10-11T10:53:33.153Z,11.40
2018-10-11T10:56:01.461Z,11.20
2018-10-11T10:58:29.309Z,12.20
2018-10-11T11:00:59.235Z,11.00
2018-10-11T11:03:26.800Z,11.20
2018-10-11T11:05:54.340Z,9.00
2018-10-11T11:08:23.208Z,7.60
2018-10-11T11:10:51.380Z,8.40
2018-10-11T11:13:19.054Z,2.00
2018-10-11T11:15:47.142Z,7.80
2018-10-11T11:18:14.681Z,7.00
2018-10-11T11:20:44.860Z,8.20
2018-10-11T11:23:13.859Z,9.00
2018-10-11T11:25:41.552Z,8.80
2018-10-11T11:28:09.117Z,10.20
2018-10-11T11:30:37.241Z,8.80
2018-10-11T11:33:05.911Z,8.00
2018-10-11T11:35:33.474Z,7.60
2018-10-11T11:38:02.448Z,8.00
2018-10-11T11:40:30.106Z,8.20
2018-10-11T11:42:58.402Z,6.00
2018-10-11T11:45:26.317Z,9.40
2018-10-11T11:47:53.971Z,7.00
2018-10-11T11:50:23.296Z,7.40
2018-10-11T11:52:52.908Z,8.40
2018-10-11T11:55:20.489Z,7.60
2018-10-11T11:57:49.415Z,5.00
2018-10-11T12:00:17.472Z,9.00
2018-10-11T12:02:45.116Z,7.40
2018-10-11T12:05:12.719Z,9.00
2018-10-11T12:07:41.232Z,7.20
2018-10-11T12:10:09.409Z,6.40
2018-10-11T12:12:36.953Z,7.20
2018-10-11T12:15:05.625Z,6.00
2018-10-11T12:17:33.225Z,7.60
2018-10-11T12:20:00.931Z,7.60
2018-10-11T12:22:29.838Z,6.80
2018-10-11T12:24:57.451Z,9.20
2018-10-11T12:27:26.487Z,7.20
2018-10-11T12:29:54.576Z,8.60
2018-10-11T12:32:23.341Z,7.40
2018-10-11T12:34:50.881Z,8.00
2018-10-11T12:37:18.921Z,7.80
2018-10-11T12:39:46.479Z,7.60
2018-10-11T12:42:14.057Z,8.00
2018-10-11T12:44:42.093Z,4.80
2018-10-11T12:47:09.740Z,6.80
2018-10-11T12:49:40.579Z,7.20
2018-10-11T12:52:05.371Z,7.20
2018-10-11T12:54:33.325Z,5.20
2018-10-11T12:57:01.009Z,7.40
2018-10-11T12:59:28.904Z,6.00
2018-10-11T13:01:56.541Z,6.20
2018-10-11T13:04:24.101Z,6.80
2018-10-11T13:06:52.102Z,7.40
2018-10-11T13:09:22.681Z,7.40
2018-10-11T13:11:50.537Z,7.40
2018-10-11T13:14:18.532Z,7.40
2018-10-11T13:16:46.184Z,8.80
2018-10-11T13:19:13.798Z,7.00
2018-10-11T13:21:41.754Z,6.60
2018-10-11T13:24:11.161Z,7.00
2018-10-11T13:26:38.777Z,7.40
2018-10-11T13:29:06.796Z,6.20
2018-10-11T13:31:35.289Z,8.80
2018-10-11T13:34:02.912Z,7.40
2018-10-11T13:36:32.014Z,10.80
2018-10-11T13:38:59.576Z,6.80
2018-10-11T13:41:27.203Z,7.20
2018-10-11T13:43:56.820Z,8.40
2018-10-11T13:46:24.476Z,7.00
2018-10-11T13:48:53.289Z,10.40
2018-10-11T13:51:21.982Z,10.00
2018-10-11T13:53:55.479Z,9.20
2018-10-11T13:56:20.253Z,7.60
2018-10-11T13:58:47.838Z,7.20
2018-10-11T14:01:17.288Z,7.00
2018-10-11T14:03:46.106Z,11.00
2018-10-11T14:06:15.465Z,8.20
2018-10-11T14:08:43.046Z,10.80
2018-10-11T14:11:11.103Z,10.60
2018-10-11T14:13:39.743Z,12.20
2018-10-11T14:16:08.225Z,12.00
2018-10-11T14:18:36.620Z,13.40
2018-10-11T14:21:06.665Z,15.00
2018-10-11T14:23:34.246Z,12.00
2018-10-11T14:26:02.273Z,12.80
2018-10-11T14:28:32.896Z,12.80
2018-10-11T14:31:02.236Z,13.40
2018-10-11T14:33:30.255Z,15.20
2018-10-11T14:35:57.881Z,12.80
2018-10-11T14:38:25.512Z,17.80
2018-10-11T14:40:54.089Z,12.00
2018-10-11T14:43:21.722Z,12.60
2018-10-11T14:45:49.301Z,14.00
2018-10-11T14:48:17.415Z,13.80
2018-10-11T14:50:45.881Z,16.00
2018-10-11T14:53:13.470Z,14.40
2018-10-11T14:55:45.683Z,14.20
2018-10-11T14:58:14.620Z,14.00
2018-10-11T15:00:43.066Z,13.60
2018-10-11T15:03:11.189Z,16.00
2018-10-11T15:05:38.796Z,17.60
2018-10-11T15:08:06.594Z,13.80
2018-10-11T15:10:34.591Z,16.60
2018-10-11T15:13:03.967Z,12.40
2018-10-11T15:15:31.802Z,15.20
2018-10-11T15:17:59.820Z,19.80
2018-10-11T15:20:27.621Z,17.00
2018-10-11T15:22:55.940Z,22.60
2018-10-11T15:25:23.916Z,16.80
2018-10-11T15:27:53.679Z,14.80
2018-10-11T15:30:23.727Z,19.00
2018-10-11T15:32:51.620Z,18.60
2018-10-11T15:35:19.298Z,18.00
2018-10-11T15:37:47.476Z,19.20
2018-10-11T15:40:15.453Z,15.00
2018-10-11T15:42:43.638Z,14.00
2018-10-11T15:45:11.186Z,17.60
2018-10-11T15:47:40.370Z,18.00
2018-10-11T15:50:09.122Z,20.40
2018-10-11T15:52:36.798Z,19.80
2018-10-11T15:55:06.751Z,13.60
2018-10-11T15:57:34.325Z,18.80
2018-10-11T16:00:03.611Z,15.60
2018-10-11T16:02:31.808Z,18.80
2018-10-11T16:04:59.364Z,16.80
2018-10-11T16:07:27.522Z,17.00
2018-10-11T16:09:55.356Z,19.80
2018-10-11T16:12:23.618Z,14.80
2018-10-11T16:14:52.769Z,18.60
2018-10-11T16:17:20.788Z,16.20
2018-10-11T16:19:48.496Z,19.00
2018-10-11T16:22:16.910Z,14.40
2018-10-11T16:24:45.615Z,16.60
2018-10-11T16:27:13.176Z,17.20
2018-10-11T16:29:40.956Z,13.40
2018-10-11T16:32:08.876Z,20.00
2018-10-11T16:34:36.446Z,16.80
2018-10-11T16:37:05.628Z,17.40
2018-10-11T16:39:33.661Z,19.80
2018-10-11T16:42:01.202Z,15.80
2018-10-11T16:44:28.920Z,17.40
2018-10-11T16:46:58.090Z,15.80
2018-10-11T16:49:26.272Z,20.60
2018-10-11T16:51:56.840Z,18.20
2018-10-11T16:54:26.392Z,18.80
2018-10-11T16:56:54.475Z,16.80
2018-10-11T16:59:23.357Z,16.80
2018-10-11T17:01:53.061Z,24.40
2018-10-11T17:04:21.304Z,18.40
2018-10-11T17:06:50.372Z,14.20
2018-10-11T17:09:19.459Z,19.20
2018-10-11T17:11:47.020Z,19.00
2018-10-11T17:14:16.214Z,19.40
2018-10-11T17:16:44.290Z,17.40
2018-10-11T17:19:15.618Z,18.00
2018-10-11T17:21:48.018Z,18.00
2018-10-11T17:24:16.535Z,20.60
2018-10-11T17:26:58.803Z,21.00
2018-10-11T17:29:27.607Z,18.40
2018-10-11T17:31:55.936Z,26.60
2018-10-11T17:34:24.101Z,24.00
2018-10-11T17:36:52.117Z,17.40
2018-10-11T17:39:19.687Z,19.00
2018-10-11T17:41:47.295Z,15.60
2018-10-11T17:44:16.345Z,15.00
2018-10-11T17:46:43.934Z,21.40
2018-10-11T17:49:12.074Z,17.00
2018-10-11T17:51:41.318Z,17.00
2018-10-11T17:54:11.684Z,20.60
2018-10-11T17:56:40.084Z,20.60
2018-10-11T17:59:07.683Z,21.40
2018-10-11T18:01:37.076Z,20.60
2018-10-11T18:04:04.960Z,26.60
2018-10-11T18:06:32.578Z,17.00
2018-10-11T18:09:01.729Z,20.20
2018-10-11T18:11:29.573Z,18.00
2018-10-11T18:13:58.563Z,23.60
2018-10-11T18:16:29.801Z,24.80
2018-10-11T18:18:57.888Z,21.40
2018-10-11T18:21:27.548Z,26.60
2018-10-11T18:23:56.068Z,22.00
2018-10-11T18:26:26.928Z,20.60
2018-10-11T18:28:54.476Z,18.40
2018-10-11T18:31:22.077Z,22.80
2018-10-11T18:33:51.092Z,24.20
2018-10-11T18:36:19.492Z,20.40
2018-10-11T18:38:47.095Z,20.00
2018-10-11T18:41:15.013Z,18.40
2018-10-11T18:43:44.014Z,19.00
2018-10-11T18:46:11.659Z,20.60
2018-10-11T18:48:40.689Z,26.40
2018-10-11T18:51:09.677Z,28.20
2018-10-11T18:53:37.644Z,26.80
2018-10-11T18:56:08.685Z,23.40
2018-10-11T18:58:36.845Z,26.20
2018-10-11T19:01:04.373Z,20.40
2018-10-11T19:03:32.369Z,26.80
2018-10-11T19:06:01.406Z,20.80
2018-10-11T19:08:29.379Z,23.00
2018-10-11T19:10:57.488Z,22.00
2018-10-11T19:13:25.341Z,22.20
2018-10-11T19:15:54.062Z,23.40
2018-10-11T19:18:22.816Z,24.40
2018-10-11T19:20:50.555Z,25.20
2018-10-11T19:23:18.813Z,16.80
2018-10-11T19:25:48.702Z,18.60
2018-10-11T19:28:16.502Z,20.80
2018-10-11T19:30:45.747Z,22.40
2018-10-11T19:33:14.602Z,21.60
2018-10-11T19:35:44.505Z,20.20
2018-10-11T19:38:12.102Z,23.00
2018-10-11T19:40:40.077Z,19.00
2018-10-11T19:43:07.641Z,28.20
2018-10-11T19:45:35.215Z,23.20
2018-10-11T19:48:04.436Z,21.80
2018-10-11T19:50:33.456Z,23.60
2018-10-11T19:53:02.526Z,26.80
2018-10-11T19:55:30.497Z,25.00
2018-10-11T19:58:00.612Z,30.80
2018-10-11T20:00:28.167Z,19.40
2018-10-11T20:02:56.721Z,19.40
2018-10-11T20:05:29.236Z,22.40
2018-10-11T20:07:58.230Z,28.40
2018-10-11T20:10:26.422Z,22.60
2018-10-11T20:12:55.906Z,14.60
2018-10-11T20:15:23.653Z,22.60
2018-10-11T20:17:52.664Z,22.60
2018-10-11T20:20:21.714Z,20.20
2018-10-11T20:22:49.263Z,22.00
2018-10-11T20:25:18.206Z,25.40
2018-10-11T20:27:45.789Z,22.20
2018-10-11T20:30:13.369Z,28.80
2018-10-11T20:32:41.263Z,19.40
2018-10-11T20:35:09.683Z,22.80
2018-10-11T20:37:38.304Z,26.80
2018-10-11T20:40:06.572Z,28.80
2018-10-11T20:42:35.627Z,31.20
2018-10-11T20:45:04.652Z,26.80
2018-10-11T20:47:32.569Z,15.80
2018-10-11T20:50:01.921Z,22.40
2018-10-11T20:52:29.712Z,24.60
2018-10-11T20:54:59.665Z,25.00
2018-10-11T20:57:27.293Z,25.60
2018-10-11T20:59:57.305Z,26.20
2018-10-11T21:02:26.253Z,21.00
2018-10-11T21:04:53.822Z,22.20
2018-10-11T21:07:27.144Z,27.80
2018-10-11T21:09:55.840Z,13.40
2018-10-11T21:12:23.433Z,21.00
2018-10-11T21:14:52.545Z,22.00
2018-10-11T21:17:20.484Z,24.80
2018-10-11T21:19:48.085Z,23.20
2018-10-11T21:22:15.730Z,19.00
2018-10-11T21:24:44.280Z,28.00
2018-10-11T21:27:12.549Z,22.00
2018-10-11T21:29:40.625Z,22.80
2018-10-11T21:32:08.603Z,21.20
2018-10-11T21:34:36.195Z,22.40
2018-10-11T21:37:04.303Z,21.20
2018-10-11T21:39:32.325Z,23.00
2018-10-11T21:41:59.848Z,26.40
2018-10-11T21:44:28.063Z,22.00
2018-10-11T21:46:55.924Z,21.80
2018-10-11T21:49:23.493Z,20.00
2018-10-11T21:51:52.689Z,24.80
2018-10-11T21:54:20.552Z,20.80
2018-10-11T21:56:48.096Z,20.00
2018-10-11T21:59:15.680Z,15.40
2018-10-11T22:01:46.638Z,17.80
2018-10-11T22:04:14.172Z,18.60
2018-10-11T22:06:41.736Z,21.40
2018-10-11T22:09:09.800Z,20.00
2018-10-11T22:11:37.460Z,24.40
2018-10-11T22:14:06.504Z,20.60
2018-10-11T22:16:35.317Z,11.40
2018-10-11T22:19:03.285Z,14.40
2018-10-11T22:21:30.840Z,13.80
2018-10-11T22:23:58.409Z,19.00
2018-10-11T22:26:26.001Z,25.00
2018-10-11T22:28:55.924Z,25.40
2018-10-11T22:31:23.496Z,17.40
2018-10-11T22:33:51.088Z,24.80
2018-10-11T22:36:18.996Z,22.60
2018-10-11T22:38:46.551Z,15.20
2018-10-11T22:41:14.108Z,17.60
2018-10-11T22:43:44.944Z,12.60
2018-10-11T22:46:13.131Z,21.00
2018-10-11T22:48:40.692Z,18.00
2018-10-11T22:51:08.619Z,17.80
2018-10-11T22:53:36.256Z,13.40
2018-10-11T22:56:03.808Z,19.00
2018-10-11T22:58:31.346Z,22.20
2018-10-11T23:00:59.276Z,19.20
2018-10-11T23:03:26.859Z,15.80
2018-10-11T23:05:54.438Z,19.40
2018-10-11T23:08:21.972Z,16.60
2018-10-11T23:10:49.979Z,17.20
2018-10-11T23:13:17.608Z,18.00
2018-10-11T23:15:45.204Z,18.40
2018-10-11T23:18:13.626Z,13.00
2018-10-11T23:20:42.259Z,19.80
2018-10-11T23:25:30.756Z,19.60
2018-10-11T23:27:58.305Z,16.00
2018-10-11T23:30:26.288Z,14.40
2018-10-11T23:32:53.848Z,13.40
2018-10-11T23:35:21.380Z,10.00
2018-10-11T23:37:49.278Z,13.00
2018-10-11T23:40:17.687Z,15.80
2018-10-11T23:42:45.232Z,15.80
2018-10-11T23:45:13.521Z,18.60
2018-10-11T23:47:42.588Z,14.60
2018-10-11T23:50:10.175Z,15.20
2018-10-11T23:52:37.739Z,15.80
2018-10-11T23:55:05.564Z,9.80
2018-10-11T23:57:33.108Z,16.20
